Time;durP1;ratioP1;P1;durP2;ratioP2;P2;SDS_P1;SDS_P2;PMS_P1;PMS_P2;Temp;Humidity;BMP_temperature;BMP_pressure;BME280_temperature;BME280_humidity;BME280_pressure;Samples;Min_cycle;Max_cycle;Signal;HPM_P1;HPM_P2
2024/03/12 00:01:39;;;;;;;2.40;2.20;;;8.80;99.90;;;;;;5042852;28;20395;-81
2024/03/12 00:04:08;;;;;;;1.80;1.70;;;8.80;99.90;;;;;;5058728;28;20389;-81
2024/03/12 00:06:35;;;;;;;1.90;1.45;;;8.80;99.90;;;;;;5056648;28;20409;-80
2024/03/12 00:09:02;;;;;;;1.80;1.70;;;8.80;99.90;;;;;;5043003;28;20406;-81
2024/03/12 00:11:27;;;;;;;2.70;1.70;;;8.80;99.90;;;;;;5052680;28;20513;-80
2024/03/12 00:13:53;;;;;;;2.13;1.90;;;8.90;99.90;;;;;;5069606;28;20398;-80
2024/03/12 00:16:18;;;;;;;1.87;1.77;;;8.90;99.90;;;;;;5058520;28;20384;-80
2024/03/12 00:18:44;;;;;;;3.15;2.03;;;9.00;99.90;;;;;;5044958;28;20406;-80
2024/03/12 00:21:09;;;;;;;3.25;2.05;;;9.00;99.90;;;;;;5048306;28;20419;-80
2024/03/12 00:23:35;;;;;;;3.10;1.83;;;9.00;99.90;;;;;;5073793;28;20395;-80
2024/03/12 00:26:00;;;;;;;2.30;1.80;;;8.90;99.90;;;;;;5059426;28;20408;-80
2024/03/12 00:28:26;;;;;;;2.05;1.85;;;8.90;99.90;;;;;;5047610;28;20758;-81
2024/03/12 00:30:53;;;;;;;2.60;1.60;;;8.90;99.90;;;;;;5045239;28;20407;-80
2024/03/12 00:33:20;;;;;;;3.40;1.93;;;8.80;99.90;;;;;;5064445;28;20394;-79
2024/03/12 00:35:46;;;;;;;1.87;1.63;;;8.90;99.90;;;;;;5058323;28;20399;-80
2024/03/12 00:38:12;;;;;;;2.10;1.90;;;8.90;99.90;;;;;;5035105;28;20851;-80
2024/03/12 00:40:38;;;;;;;2.10;1.60;;;8.90;99.90;;;;;;5051189;22;20506;-80
2024/03/12 00:43:06;;;;;;;1.90;1.60;;;8.80;99.90;;;;;;5058260;28;20397;-80
2024/03/12 00:45:39;;;;;;;2.88;2.17;;;8.70;99.90;;;;;;5061358;28;20409;-80
2024/03/12 00:48:06;;;;;;;2.70;2.50;;;8.80;99.90;;;;;;5060928;28;20400;-80
2024/03/12 00:50:36;;;;;;;2.13;1.90;;;8.80;99.90;;;;;;5056460;28;20785;-80
2024/03/12 00:53:02;;;;;;;2.30;2.10;;;8.90;99.90;;;;;;5061200;28;20400;-81
2024/03/12 00:55:31;;;;;;;2.50;2.10;;;8.80;99.90;;;;;;5072484;28;20385;-80
2024/03/12 00:57:57;;;;;;;2.35;2.15;;;8.80;99.90;;;;;;5061939;28;20449;-80
2024/03/12 01:00:28;;;;;;;2.10;1.88;;;8.90;99.90;;;;;;5058685;28;20397;-80
2024/03/12 01:02:58;;;;;;;2.50;2.00;;;8.90;99.90;;;;;;5059405;28;20916;-80
2024/03/12 01:05:24;;;;;;;2.20;1.90;;;8.90;99.90;;;;;;5059038;28;20400;-80
2024/03/12 01:08:01;;;;;;;2.87;1.90;;;8.90;99.90;;;;;;5068098;28;20967;-81
2024/03/12 01:10:31;;;;;;;2.77;2.03;;;8.80;99.90;;;;;;5042880;28;20458;-80
2024/03/12 01:13:00;;;;;;;2.13;1.92;;;8.80;99.90;;;;;;5060967;28;20397;-80
2024/03/12 01:15:29;;;;;;;2.22;2.03;;;8.80;99.90;;;;;;5061914;28;20393;-80
2024/03/12 01:17:56;;;;;;;4.60;2.38;;;8.70;99.90;;;;;;5059673;28;20485;-79
2024/03/12 01:20:24;;;;;;;2.53;2.30;;;8.80;99.90;;;;;;5043783;28;20404;-80
2024/03/12 01:22:51;;;;;;;2.75;1.70;;;8.80;99.90;;;;;;5057923;28;20393;-80
2024/03/12 01:25:17;;;;;;;3.05;1.85;;;8.90;99.90;;;;;;5058127;28;20613;-80
2024/03/12 01:27:42;;;;;;;1.88;1.77;;;8.80;99.90;;;;;;5069954;28;20391;-80
2024/03/12 01:30:16;;;;;;;2.53;2.10;;;8.80;99.90;;;;;;5056334;28;20398;-80
2024/03/12 01:32:46;;;;;;;1.75;1.63;;;8.80;99.90;;;;;;5071958;28;20490;-80
2024/03/12 01:35:15;;;;;;;1.70;1.60;;;8.70;99.90;;;;;;5059589;28;20468;-80
2024/03/12 01:37:42;;;;;;;2.20;1.58;;;8.80;99.90;;;;;;5057279;28;20761;-80
2024/03/12 01:40:26;;;;;;;1.90;1.70;;;8.80;99.90;;;;;;5050522;28;20767;-81
2024/03/12 01:42:53;;;;;;;3.10;1.88;;;8.70;99.90;;;;;;5078767;28;20396;-81
2024/03/12 01:45:22;;;;;;;2.90;1.67;;;8.70;99.90;;;;;;5060780;28;20392;-80
2024/03/12 01:47:49;;;;;;;2.38;1.60;;;8.60;99.90;;;;;;5056772;28;20476;-80
2024/03/12 01:50:15;;;;;;;1.80;1.50;;;8.50;99.90;;;;;;5063636;28;20438;-80
2024/03/12 01:52:43;;;;;;;1.60;1.50;;;8.50;99.90;;;;;;5079950;28;20384;-81
2024/03/12 01:55:10;;;;;;;1.73;1.60;;;8.60;99.90;;;;;;5079253;28;20808;-81
2024/03/12 01:57:42;;;;;;;1.98;1.60;;;8.60;99.90;;;;;;5075359;28;20383;-80
2024/03/12 02:00:13;;;;;;;1.50;1.40;;;8.60;99.90;;;;;;5069062;28;20388;-81
2024/03/12 02:02:39;;;;;;;3.90;2.10;;;8.60;99.90;;;;;;5065123;28;20920;-81
2024/03/12 02:05:05;;;;;;;2.43;2.03;;;8.60;99.90;;;;;;5052929;28;20402;-80
2024/03/12 02:07:31;;;;;;;2.70;1.97;;;8.60;99.90;;;;;;5053689;28;20402;-80
2024/03/12 02:09:56;;;;;;;2.27;1.90;;;8.40;99.90;;;;;;5038535;28;20954;-80
2024/03/12 02:12:22;;;;;;;3.50;2.20;;;8.40;99.90;;;;;;5033678;28;20454;-80
2024/03/12 02:14:49;;;;;;;2.30;2.10;;;8.40;99.90;;;;;;5054752;28;20428;-79
2024/03/12 02:17:14;;;;;;;2.08;1.88;;;8.40;99.90;;;;;;5064665;28;20397;-80
2024/03/12 02:19:40;;;;;;;2.90;2.10;;;8.40;99.90;;;;;;5053769;28;20405;-80
2024/03/12 02:22:06;;;;;;;3.13;2.00;;;8.40;99.90;;;;;;5057208;28;20822;-80
2024/03/12 02:24:32;;;;;;;2.40;2.00;;;8.40;99.90;;;;;;5058457;28;20385;-80
2024/03/12 02:26:58;;;;;;;3.10;1.90;;;8.40;99.90;;;;;;5061758;28;20401;-79
2024/03/12 02:29:23;;;;;;;3.90;2.35;;;8.40;99.90;;;;;;5053973;28;20402;-80
2024/03/12 02:31:49;;;;;;;2.80;1.90;;;8.40;99.90;;;;;;5048326;28;20785;-80
2024/03/12 02:34:14;;;;;;;3.30;2.40;;;8.40;99.90;;;;;;5053624;28;20382;-80
2024/03/12 02:36:40;;;;;;;2.83;1.90;;;8.40;99.90;;;;;;5055263;28;20401;-80
2024/03/12 02:39:07;;;;;;;2.20;1.90;;;8.40;99.90;;;;;;5052305;28;20918;-80
2024/03/12 02:41:33;;;;;;;3.40;2.30;;;8.40;99.90;;;;;;5051526;28;20405;-80
2024/03/12 02:43:59;;;;;;;2.17;2.08;;;8.40;99.90;;;;;;5056446;28;20462;-80
2024/03/12 02:46:24;;;;;;;2.60;2.30;;;8.40;99.90;;;;;;5053993;28;20389;-80
2024/03/12 02:48:54;;;;;;;2.97;2.50;;;8.50;99.90;;;;;;5050036;28;20397;-80
2024/03/12 02:51:19;;;;;;;3.70;2.42;;;8.50;99.90;;;;;;5049485;28;20401;-80
2024/03/12 02:53:45;;;;;;;2.83;2.20;;;8.50;99.90;;;;;;5054524;28;20764;-81
2024/03/12 02:56:12;;;;;;;2.08;1.90;;;8.50;99.90;;;;;;5070927;28;20396;-80
2024/03/12 02:58:37;;;;;;;3.33;2.63;;;8.60;99.90;;;;;;5033749;28;20486;-81
2024/03/12 03:01:03;;;;;;;2.60;2.00;;;8.60;99.90;;;;;;5038666;28;20416;-82
2024/03/12 03:03:28;;;;;;;2.20;2.00;;;8.60;99.90;;;;;;5053697;28;20388;-79
2024/03/12 03:05:54;;;;;;;2.38;2.17;;;8.70;99.90;;;;;;5056542;28;20426;-80
2024/03/12 03:08:20;;;;;;;3.38;2.53;;;8.70;99.90;;;;;;5065658;28;20402;-80
2024/03/12 03:10:45;;;;;;;2.38;2.17;;;8.70;99.90;;;;;;5034369;28;20431;-80
2024/03/12 03:13:11;;;;;;;2.33;2.00;;;8.50;99.90;;;;;;5077391;28;20399;-79
2024/03/12 03:15:37;;;;;;;2.30;2.10;;;8.50;99.90;;;;;;5067278;28;20419;-79
2024/03/12 03:18:03;;;;;;;2.67;2.17;;;8.40;99.90;;;;;;5052399;28;20392;-80
2024/03/12 03:20:28;;;;;;;2.70;2.50;;;8.30;99.90;;;;;;5033233;28;20383;-79
2024/03/12 03:22:54;;;;;;;2.45;2.25;;;8.10;99.90;;;;;;5034367;28;21061;-80
2024/03/12 03:25:19;;;;;;;2.60;2.40;;;8.10;99.90;;;;;;5053527;28;20468;-79
2024/03/12 03:27:45;;;;;;;3.17;2.70;;;8.00;99.90;;;;;;5057955;28;20393;-80
2024/03/12 03:30:17;;;;;;;3.63;2.60;;;7.90;99.90;;;;;;5057690;28;20828;-81
2024/03/12 03:32:45;;;;;;;3.17;2.78;;;8.00;99.90;;;;;;5056395;28;20435;-80
2024/03/12 03:35:11;;;;;;;3.15;2.85;;;7.80;99.90;;;;;;5057343;28;20481;-80
2024/03/12 03:37:40;;;;;;;4.53;3.40;;;7.80;99.90;;;;;;5058035;28;20413;-81
2024/03/12 03:40:22;;;;;;;3.90;3.50;;;7.80;99.90;;;;;;5062022;28;20480;-81
2024/03/12 03:42:51;;;;;;;3.63;3.30;;;7.80;99.90;;;;;;5036656;28;20421;-80
2024/03/12 03:45:18;;;;;;;3.85;3.00;;;7.80;99.90;;;;;;5042362;28;20393;-80
2024/03/12 03:47:44;;;;;;;3.63;3.20;;;7.70;99.90;;;;;;5062592;28;20465;-80
2024/03/12 03:50:10;;;;;;;3.67;3.10;;;7.80;99.90;;;;;;5060649;28;20397;-81
2024/03/12 03:52:39;;;;;;;3.20;2.90;;;7.80;99.90;;;;;;5058120;28;20394;-81
2024/03/12 03:55:09;;;;;;;4.95;3.30;;;7.80;99.90;;;;;;5056881;28;20769;-80
2024/03/12 03:57:34;;;;;;;2.90;2.60;;;7.80;99.90;;;;;;5063661;28;20385;-81
2024/03/12 04:00:12;;;;;;;3.10;2.80;;;7.70;99.90;;;;;;5046387;28;20407;-81
2024/03/12 04:02:43;;;;;;;2.70;2.50;;;7.70;99.90;;;;;;5051410;28;20424;-80
2024/03/12 04:05:09;;;;;;;4.00;3.30;;;7.70;99.90;;;;;;5058774;28;20401;-80
2024/03/12 04:07:35;;;;;;;3.30;3.00;;;7.70;99.90;;;;;;5075538;28;20388;-80
2024/03/12 04:10:00;;;;;;;3.25;2.95;;;7.70;99.90;;;;;;5047987;28;20724;-82
2024/03/12 04:12:26;;;;;;;3.78;3.08;;;7.70;99.90;;;;;;5039646;28;20458;-82
2024/03/12 04:14:51;;;;;;;4.60;3.28;;;7.60;99.90;;;;;;5055865;28;20381;-81
2024/03/12 04:17:18;;;;;;;4.65;3.20;;;7.60;99.90;;;;;;5074397;28;20415;-80
2024/03/12 04:19:47;;;;;;;3.90;2.70;;;7.50;99.90;;;;;;5054252;28;20531;-79
2024/03/12 04:22:16;;;;;;;3.00;2.42;;;7.50;99.90;;;;;;5057974;28;20476;-79
2024/03/12 04:24:43;;;;;;;3.00;2.70;;;7.60;99.90;;;;;;5058841;28;20389;-80
2024/03/12 04:27:14;;;;;;;2.92;2.55;;;7.50;99.90;;;;;;5071186;28;20856;-80
2024/03/12 04:29:41;;;;;;;2.50;2.30;;;7.50;99.90;;;;;;5060303;28;20403;-81
2024/03/12 04:32:06;;;;;;;2.60;2.10;;;7.50;99.90;;;;;;5057891;28;20473;-81
2024/03/12 04:34:33;;;;;;;2.78;2.00;;;7.60;99.90;;;;;;5066058;28;20415;-80
2024/03/12 04:37:00;;;;;;;2.30;2.10;;;7.60;99.90;;;;;;5055840;28;20398;-80
2024/03/12 04:39:32;;;;;;;2.85;1.80;;;7.50;99.90;;;;;;5054452;28;20901;-80
2024/03/12 04:42:04;;;;;;;1.70;1.60;;;7.50;99.90;;;;;;5058746;28;20500;-80
2024/03/12 04:44:33;;;;;;;2.10;1.80;;;7.50;99.90;;;;;;5062449;28;20404;-80
2024/03/12 04:46:59;;;;;;;1.65;1.55;;;7.50;99.90;;;;;;5056554;28;20407;-81
2024/03/12 04:49:25;;;;;;;1.70;1.60;;;7.50;99.90;;;;;;5055569;28;20468;-81
2024/03/12 04:51:51;;;;;;;2.22;1.50;;;7.50;99.90;;;;;;5056463;28;20396;-80
2024/03/12 04:54:20;;;;;;;1.90;1.50;;;7.50;99.90;;;;;;5055822;28;20390;-81
2024/03/12 04:56:46;;;;;;;1.70;1.52;;;7.40;99.90;;;;;;5053822;28;20426;-80
2024/03/12 04:59:15;;;;;;;1.88;1.77;;;7.50;99.90;;;;;;5053776;28;20398;-80
2024/03/12 05:01:44;;;;;;;2.60;2.10;;;7.30;99.90;;;;;;5055386;28;20393;-80
2024/03/12 05:04:11;;;;;;;2.40;1.70;;;7.40;99.90;;;;;;5061738;28;20424;-80
2024/03/12 05:06:36;;;;;;;1.63;1.42;;;7.40;99.90;;;;;;5062899;28;20389;-80
2024/03/12 05:09:03;;;;;;;2.13;1.80;;;7.30;99.90;;;;;;5063807;28;20817;-81
2024/03/12 05:11:28;;;;;;;1.60;1.50;;;7.40;99.90;;;;;;5057870;28;20426;-82
2024/03/12 05:13:54;;;;;;;2.55;2.00;;;7.40;99.90;;;;;;5068201;28;20427;-82
2024/03/12 05:16:25;;;;;;;2.00;1.40;;;7.40;99.90;;;;;;5070306;28;20413;-80
2024/03/12 05:18:50;;;;;;;2.08;1.65;;;7.30;99.90;;;;;;5062866;28;20423;-81
2024/03/12 05:21:16;;;;;;;2.10;1.70;;;7.30;99.90;;;;;;5059626;28;20909;-80
2024/03/12 05:23:42;;;;;;;2.83;1.67;;;7.30;99.90;;;;;;5056627;28;20389;-81
2024/03/12 05:26:08;;;;;;;1.80;1.50;;;7.20;99.90;;;;;;5054580;28;20405;-82
2024/03/12 05:28:35;;;;;;;2.00;1.40;;;7.30;99.90;;;;;;5072405;28;20395;-80
2024/03/12 05:31:01;;;;;;;1.75;1.60;;;7.30;99.90;;;;;;5054294;28;20858;-81
2024/03/12 05:33:29;;;;;;;1.70;1.40;;;7.30;99.90;;;;;;5057348;28;20404;-80
2024/03/12 05:35:56;;;;;;;1.30;1.10;;;7.30;99.90;;;;;;5059672;28;20385;-80
2024/03/12 05:38:32;;;;;;;1.30;1.15;;;7.30;99.90;;;;;;5064660;28;20398;-80
2024/03/12 05:49:08;;;;;;;1.10;1.00;;;7.30;99.90;;;;;;5047971;28;20416;-80
2024/03/12 05:51:37;;;;;;;1.15;1.05;;;7.30;99.90;;;;;;5065892;28;20778;-80
2024/03/12 05:54:05;;;;;;;1.30;0.90;;;7.30;99.90;;;;;;5056115;28;20985;-80
2024/03/12 05:56:30;;;;;;;1.03;0.90;;;7.40;99.90;;;;;;5053983;28;20401;-80
2024/03/12 05:58:56;;;;;;;1.50;0.80;;;7.40;99.90;;;;;;5065325;28;20418;-80
2024/03/12 06:01:24;;;;;;;0.83;0.80;;;7.30;99.90;;;;;;5066421;28;20404;-80
2024/03/12 06:03:50;;;;;;;2.17;0.70;;;7.40;99.90;;;;;;5063475;28;20480;-80
2024/03/12 06:06:17;;;;;;;0.90;0.70;;;7.40;99.90;;;;;;5063466;28;20408;-79
2024/03/12 06:08:44;;;;;;;0.60;0.60;;;7.40;99.90;;;;;;5058579;28;20650;-80
2024/03/12 06:11:11;;;;;;;0.70;0.70;;;7.40;99.90;;;;;;5057802;28;20441;-80
2024/03/12 06:13:38;;;;;;;1.10;1.00;;;7.40;99.90;;;;;;5057011;28;20654;-80
2024/03/12 06:16:04;;;;;;;0.80;0.70;;;7.40;99.90;;;;;;5057244;28;20390;-80
2024/03/12 06:18:29;;;;;;;0.70;0.70;;;7.40;99.90;;;;;;5057756;28;20401;-82
2024/03/12 06:20:55;;;;;;;1.10;0.60;;;7.40;99.90;;;;;;5058382;28;20406;-80
2024/03/12 06:23:22;;;;;;;1.00;0.60;;;7.40;99.90;;;;;;5057380;28;20381;-80
2024/03/12 06:25:48;;;;;;;0.80;0.60;;;7.50;99.90;;;;;;5060520;28;20742;-81
2024/03/12 06:28:14;;;;;;;0.60;0.50;;;7.50;99.90;;;;;;5057551;28;20400;-81
2024/03/12 06:30:43;;;;;;;1.20;0.70;;;7.50;99.90;;;;;;5057586;28;20448;-81
2024/03/12 06:33:09;;;;;;;0.70;0.70;;;7.50;99.90;;;;;;5056797;28;20754;-80
2024/03/12 06:35:39;;;;;;;0.90;0.70;;;7.40;99.90;;;;;;5056985;28;20773;-81
2024/03/12 06:38:05;;;;;;;0.70;0.70;;;7.50;99.90;;;;;;5056761;28;20389;-80
2024/03/12 06:41:10;;;;;;;0.90;0.60;;;7.20;99.90;;;;;;5076724;22;21266;-86
2024/03/12 06:43:50;;;;;;;0.70;0.60;;;7.50;99.90;;;;;;4990447;28;22127;-86
2024/03/12 06:46:34;;;;;;;0.90;0.70;;;7.60;99.90;;;;;;5018131;28;20412;-85
2024/03/12 06:49:12;;;;;;;0.82;0.70;;;9.30;99.90;;;;;;5013450;28;20507;-86
2024/03/12 06:51:48;;;;;;;0.90;0.80;;;7.50;99.90;;;;;;5011456;28;20416;-85
2024/03/12 06:54:21;;;;;;;0.60;0.60;;;7.70;99.90;;;;;;5015409;28;20426;-85
2024/03/12 06:56:53;;;;;;;1.00;0.70;;;7.40;99.90;;;;;;5028968;28;21096;-85
2024/03/12 06:59:55;;;;;;;1.43;1.00;;;8.70;99.90;;;;;;5020544;28;20399;-84
2024/03/12 07:02:23;;;;;;;1.00;0.90;;;8.00;99.90;;;;;;4919766;29;21297;-84
2024/03/12 07:04:53;;;;;;;1.00;0.90;;;11.40;99.90;;;;;;5011593;28;20478;-85
2024/03/12 07:13:39;;;;;;;1.40;1.30;;;9.10;99.90;;;;;;5022263;28;20384;-86
2024/03/12 07:16:28;;;;;;;1.30;1.17;;;7.20;99.90;;;;;;5029937;28;20395;-88
2024/03/12 07:19:09;;;;;;;1.40;1.30;;;8.20;99.90;;;;;;5021287;28;20387;-86
2024/03/12 07:21:38;;;;;;;1.60;1.30;;;9.20;99.90;;;;;;5050680;28;20379;-85
2024/03/12 07:24:42;;;;;;;2.40;1.60;;;10.20;99.90;;;;;;5043183;28;20409;-82
2024/03/12 07:30:26;;;;;;;1.55;1.40;;;8.40;99.90;;;;;;4918371;29;20446;-84
2024/03/12 07:33:16;;;;;;;1.70;1.60;;;8.30;99.90;;;;;;4931705;29;20403;-85
2024/03/12 07:35:48;;;;;;;1.60;1.30;;;8.10;99.90;;;;;;4972261;28;20422;-85
2024/03/12 07:38:17;;;;;;;2.40;1.40;;;8.10;99.90;;;;;;5035203;28;20422;-85
2024/03/12 07:47:10;;;;;;;1.50;1.40;;;8.70;99.90;;;;;;5016772;28;21028;-84
2024/03/12 07:50:09;;;;;;;1.80;1.60;;;11.20;99.90;;;;;;5017463;28;20435;-85
2024/03/12 07:52:47;;;;;;;2.00;1.80;;;8.20;99.90;;;;;;4955264;29;20903;-85
2024/03/12 07:55:43;;;;;;;1.85;1.70;;;7.90;99.90;;;;;;4955539;29;20420;-85
2024/03/12 07:58:22;;;;;;;1.90;1.70;;;8.00;99.90;;;;;;4989433;28;20403;-85
2024/03/12 08:00:59;;;;;;;2.00;1.73;;;8.10;99.90;;;;;;4997646;28;20424;-85
2024/03/12 08:06:14;;;;;;;2.58;1.85;;;11.20;99.90;;;;;;5016384;28;20400;-84
2024/03/12 08:08:46;;;;;;;2.75;1.90;;;8.80;99.90;;;;;;4998379;28;20389;-85
2024/03/12 08:11:30;;;;;;;3.10;1.92;;;7.10;99.90;;;;;;4995541;28;20793;-85
2024/03/12 08:14:21;;;;;;;2.38;2.10;;;8.40;99.90;;;;;;5035515;28;20389;-83
2024/03/12 08:16:53;;;;;;;2.25;2.05;;;8.50;99.90;;;;;;5013791;28;20431;-84
2024/03/12 08:19:47;;;;;;;2.70;2.10;;;8.50;99.90;;;;;;5019864;28;20393;-84
2024/03/12 08:22:25;;;;;;;2.40;2.03;;;8.40;99.90;;;;;;5020051;28;20381;-84
2024/03/12 08:25:04;;;;;;;3.50;2.40;;;8.40;99.90;;;;;;5026855;28;20479;-85
2024/03/12 08:27:49;;;;;;;2.70;2.35;;;8.40;99.90;;;;;;5039516;28;20406;-84
2024/03/12 08:30:24;;;;;;;2.70;2.25;;;6.90;99.90;;;;;;5039193;28;20391;-84
2024/03/12 08:32:56;;;;;;;3.03;2.40;;;8.90;99.90;;;;;;5039252;28;20387;-84
2024/03/12 08:35:38;;;;;;;4.38;2.90;;;8.50;99.90;;;;;;5043526;28;20398;-85
2024/03/12 08:38:09;;;;;;;4.00;3.05;;;8.40;99.90;;;;;;5038768;28;20387;-85
2024/03/12 08:40:53;;;;;;;3.28;2.55;;;8.80;99.90;;;;;;5019434;28;20510;-85
2024/03/12 08:43:21;;;;;;;2.60;2.40;;;12.00;99.90;;;;;;5018646;28;20406;-84
2024/03/12 08:46:10;;;;;;;3.08;2.75;;;8.30;99.90;;;;;;5018822;28;20398;-84
2024/03/12 08:48:53;;;;;;;3.22;2.30;;;8.90;99.90;;;;;;5018514;28;20478;-85
2024/03/12 08:51:39;;;;;;;3.65;2.80;;;8.80;99.90;;;;;;5017166;28;20399;-85
2024/03/12 08:54:34;;;;;;;3.65;2.85;;;9.50;99.90;;;;;;5019535;28;20406;-85
2024/03/12 08:57:03;;;;;;;3.53;2.78;;;8.30;99.90;;;;;;5020583;28;20387;-84
2024/03/12 08:59:37;;;;;;;3.60;3.10;;;6.60;99.90;;;;;;5022995;28;20384;-84
2024/03/12 09:02:09;;;;;;;3.22;2.92;;;8.80;99.90;;;;;;5038245;28;20395;-84
2024/03/12 09:04:39;;;;;;;4.45;3.60;;;10.50;99.90;;;;;;5039720;28;20391;-84
2024/03/12 09:07:16;;;;;;;4.20;3.47;;;8.80;99.90;;;;;;5056984;28;20389;-84
2024/03/12 09:09:45;;;;;;;3.60;3.30;;;8.80;99.90;;;;;;5022751;28;20398;-84
2024/03/12 09:12:27;;;;;;;4.67;3.60;;;8.80;99.90;;;;;;5019842;28;20403;-84
2024/03/12 09:15:02;;;;;;;4.90;4.00;;;6.60;99.90;;;;;;5017359;28;20384;-84
2024/03/12 09:17:27;;;;;;;4.10;3.30;;;9.30;99.90;;;;;;5020830;28;20875;-85
2024/03/12 09:20:05;;;;;;;4.65;3.50;;;10.00;99.90;;;;;;5017569;28;20395;-85
2024/03/12 09:22:39;;;;;;;4.20;3.67;;;9.00;99.90;;;;;;5017809;28;20469;-85
2024/03/12 09:25:05;;;;;;;4.90;4.20;;;9.50;99.90;;;;;;5036591;28;20421;-86
2024/03/12 09:27:42;;;;;;;4.97;4.10;;;9.00;99.90;;;;;;5035533;28;20767;-85
2024/03/12 09:30:10;;;;;;;4.95;3.50;;;12.50;99.90;;;;;;5019257;28;20399;-85
2024/03/12 09:32:39;;;;;;;4.75;3.80;;;9.10;99.90;;;;;;5020299;28;20402;-85
2024/03/12 09:35:08;;;;;;;4.65;3.88;;;9.80;99.90;;;;;;5020591;28;20448;-85
2024/03/12 09:37:35;;;;;;;4.22;3.83;;;10.30;99.90;;;;;;5042699;28;20394;-84
2024/03/12 09:40:05;;;;;;;4.82;4.32;;;9.10;99.90;;;;;;5024349;28;20395;-84
2024/03/12 09:42:39;;;;;;;5.35;4.13;;;9.30;99.90;;;;;;5023382;28;20387;-84
2024/03/12 09:45:08;;;;;;;5.10;4.30;;;8.60;99.90;;;;;;5023280;28;20407;-85
2024/03/12 09:47:44;;;;;;;4.78;4.00;;;8.90;99.90;;;;;;5039533;28;20397;-84
2024/03/12 09:50:23;;;;;;;6.78;4.80;;;9.20;99.90;;;;;;5018034;28;20445;-84
2024/03/12 09:52:54;;;;;;;5.15;3.75;;;8.40;99.90;;;;;;5018336;28;20384;-85
2024/03/12 09:55:22;;;;;;;6.00;4.45;;;10.50;99.90;;;;;;5016257;28;20395;-85
2024/03/12 09:57:51;;;;;;;5.72;5.13;;;9.20;99.90;;;;;;5038237;28;20407;-84
2024/03/12 10:00:28;;;;;;;5.05;4.20;;;10.60;99.90;;;;;;5017238;28;20387;-84
2024/03/12 10:03:02;;;;;;;5.28;4.22;;;9.20;99.90;;;;;;5019207;28;20398;-84
2024/03/12 10:05:28;;;;;;;5.00;4.50;;;8.80;99.90;;;;;;5019329;28;20391;-85
2024/03/12 10:08:12;;;;;;;5.73;4.87;;;9.20;99.90;;;;;;5027413;28;20418;-84
2024/03/12 10:10:44;;;;;;;5.50;4.75;;;11.00;99.90;;;;;;5036222;28;20399;-84
2024/03/12 10:13:15;;;;;;;6.23;4.80;;;8.70;99.90;;;;;;5033936;28;20387;-84
2024/03/12 10:15:58;;;;;;;6.85;5.35;;;9.10;99.90;;;;;;5031188;28;20481;-85
2024/03/12 10:21:22;;;;;;;5.70;5.05;;;9.20;99.90;;;;;;5037740;28;20823;-83
2024/03/12 10:23:51;;;;;;;6.50;4.80;;;9.70;99.90;;;;;;5020932;28;20426;-84
2024/03/12 10:26:19;;;;;;;6.03;5.43;;;9.40;99.90;;;;;;5039562;28;20478;-83
2024/03/12 10:28:50;;;;;;;5.90;5.30;;;9.60;99.90;;;;;;5021952;28;20391;-83
2024/03/12 10:31:18;;;;;;;7.07;5.68;;;9.30;99.90;;;;;;5037642;28;20422;-83
2024/03/12 10:33:48;;;;;;;6.10;4.80;;;9.70;99.90;;;;;;5021124;28;20391;-83
2024/03/12 10:36:37;;;;;;;5.15;4.40;;;12.20;99.90;;;;;;5038002;28;20946;-84
2024/03/12 10:39:12;;;;;;;5.63;5.10;;;10.20;99.90;;;;;;5038596;28;20391;-83
2024/03/12 10:41:57;;;;;;;4.78;4.28;;;10.40;99.90;;;;;;5022514;28;20896;-84
2024/03/12 10:44:27;;;;;;;6.18;5.00;;;10.30;99.90;;;;;;5039004;28;20394;-84
2024/03/12 10:47:19;;;;;;;5.30;4.80;;;10.20;99.90;;;;;;5019419;28;20379;-84
2024/03/12 10:49:48;;;;;;;5.93;4.88;;;12.30;99.90;;;;;;5021094;28;20388;-83
2024/03/12 10:52:28;;;;;;;5.70;4.90;;;10.50;99.90;;;;;;5040353;28;20446;-82
2024/03/12 10:54:54;;;;;;;5.72;5.03;;;12.00;99.90;;;;;;5038742;28;20389;-84
2024/03/12 10:57:33;;;;;;;5.90;4.90;;;10.50;99.90;;;;;;5040473;28;20402;-85
2024/03/12 11:00:08;;;;;;;5.23;4.73;;;10.30;99.90;;;;;;5036469;28;20488;-83
2024/03/12 11:02:51;;;;;;;5.50;4.90;;;9.70;99.90;;;;;;5039444;28;20395;-83
2024/03/12 11:05:28;;;;;;;6.07;5.25;;;8.90;99.90;;;;;;5038413;28;20430;-83
2024/03/12 11:07:59;;;;;;;6.47;5.70;;;10.60;99.90;;;;;;5054990;28;20395;-83
2024/03/12 11:10:32;;;;;;;7.10;5.90;;;13.30;99.90;;;;;;5027633;28;20410;-84
2024/03/12 11:13:15;;;;;;;7.65;6.20;;;10.10;99.90;;;;;;5004309;28;20436;-84
2024/03/12 11:15:42;;;;;;;7.28;6.03;;;10.00;99.90;;;;;;5016764;28;20399;-85
2024/03/12 11:18:09;;;;;;;7.20;6.50;;;9.90;99.90;;;;;;5016471;28;20402;-86
2024/03/12 11:20:44;;;;;;;9.43;7.20;;;12.20;99.90;;;;;;5015579;28;20391;-85
2024/03/12 11:23:14;;;;;;;9.10;7.30;;;10.10;99.90;;;;;;5015690;28;20439;-83
2024/03/12 11:25:45;;;;;;;8.63;6.90;;;10.20;99.90;;;;;;5011507;28;20434;-83
2024/03/12 11:28:32;;;;;;;8.60;6.93;;;12.30;99.90;;;;;;5011668;28;20934;-83
2024/03/12 11:31:04;;;;;;;7.88;7.05;;;9.90;99.90;;;;;;5012824;28;20424;-84
2024/03/12 11:33:55;;;;;;;8.02;6.35;;;12.40;99.90;;;;;;5012782;28;20392;-84
2024/03/12 11:36:39;;;;;;;8.40;6.70;;;11.60;99.90;;;;;;5014669;28;20413;-84
2024/03/12 11:39:15;;;;;;;7.35;6.45;;;10.10;99.90;;;;;;5012008;28;20765;-84
2024/03/12 11:42:10;;;;;;;8.85;6.90;;;10.10;99.90;;;;;;5012153;28;20400;-84
2024/03/12 11:44:49;;;;;;;7.68;6.70;;;10.10;99.90;;;;;;5013382;28;20471;-84
2024/03/12 11:47:36;;;;;;;8.43;6.82;;;10.10;99.90;;;;;;5016401;28;20393;-85
2024/03/12 11:50:03;;;;;;;8.88;7.38;;;10.10;99.90;;;;;;5018796;28;20408;-85
2024/03/12 11:52:31;;;;;;;9.23;7.63;;;10.00;99.90;;;;;;5019126;28;20464;-84
2024/03/12 11:54:57;;;;;;;8.80;7.20;;;10.00;99.90;;;;;;5019026;28;20407;-84
2024/03/12 11:57:27;;;;;;;10.00;7.43;;;9.90;99.90;;;;;;5019296;28;20392;-83
2024/03/12 11:59:56;;;;;;;10.55;8.50;;;9.90;99.90;;;;;;5020835;28;20904;-84
2024/03/12 12:02:23;;;;;;;9.63;7.95;;;10.00;99.90;;;;;;5018221;28;20388;-84
2024/03/12 12:04:56;;;;;;;8.98;7.13;;;9.90;99.90;;;;;;5022163;28;20385;-84
2024/03/12 12:07:25;;;;;;;10.45;7.90;;;9.90;99.90;;;;;;5007388;28;20875;-83
2024/03/12 12:09:52;;;;;;;9.73;8.03;;;9.90;99.90;;;;;;5003953;28;20385;-85
2024/03/12 12:12:18;;;;;;;11.77;8.82;;;9.80;99.90;;;;;;5020997;28;20389;-85
2024/03/12 12:14:45;;;;;;;10.10;7.68;;;10.00;99.90;;;;;;5017818;28;20388;-84
2024/03/12 12:17:11;;;;;;;10.00;8.27;;;10.00;99.90;;;;;;5024921;28;20385;-83
2024/03/12 12:19:37;;;;;;;10.35;8.43;;;10.00;99.90;;;;;;5035192;28;20388;-85
2024/03/12 12:22:04;;;;;;;10.07;8.10;;;10.10;99.90;;;;;;5030068;28;20464;-84
2024/03/12 12:24:31;;;;;;;8.83;7.53;;;10.10;99.90;;;;;;5026422;28;20496;-85
2024/03/12 12:26:57;;;;;;;11.30;8.10;;;10.20;99.90;;;;;;5041938;28;20426;-85
2024/03/12 12:29:24;;;;;;;10.70;8.00;;;10.20;99.90;;;;;;5025655;28;20395;-86
2024/03/12 12:31:52;;;;;;;10.05;7.72;;;10.20;99.90;;;;;;5027661;28;20410;-85
2024/03/12 12:34:20;;;;;;;10.27;8.00;;;10.30;99.90;;;;;;5043969;28;20755;-85
2024/03/12 12:36:49;;;;;;;10.38;8.07;;;10.30;99.90;;;;;;5043752;28;20389;-84
2024/03/12 12:39:16;;;;;;;9.50;7.65;;;10.40;99.90;;;;;;5025047;28;20442;-85
2024/03/12 12:41:43;;;;;;;10.37;7.50;;;10.40;99.90;;;;;;5059833;23;20616;-81
2024/03/12 12:44:30;;;;;;;8.38;7.03;;;10.60;99.90;;;;;;5078939;28;20418;-82
2024/03/12 12:46:55;;;;;;;8.38;6.78;;;10.40;99.90;;;;;;5096342;28;20453;-83
2024/03/12 12:49:22;;;;;;;9.67;7.27;;;10.40;99.90;;;;;;5098411;28;20442;-82
2024/03/12 12:51:47;;;;;;;9.00;7.22;;;10.60;99.90;;;;;;5077027;28;20406;-81
2024/03/12 12:54:18;;;;;;;9.23;6.90;;;10.40;99.90;;;;;;5078536;28;20390;-81
2024/03/12 12:56:49;;;;;;;9.70;7.50;;;10.70;99.90;;;;;;5094867;28;20525;-82
2024/03/12 12:59:17;;;;;;;9.20;7.00;;;11.00;99.90;;;;;;5096201;28;20460;-81
2024/03/12 13:01:43;;;;;;;9.52;6.85;;;11.30;99.90;;;;;;5069150;28;20399;-80
2024/03/12 13:04:22;;;;;;;8.73;6.97;;;11.20;99.90;;;;;;5058450;28;20388;-81
2024/03/12 13:06:49;;;;;;;9.65;7.32;;;11.30;99.90;;;;;;5079777;28;20411;-80
2024/03/12 13:09:35;;;;;;;10.07;7.63;;;10.90;99.90;;;;;;5076738;28;20384;-81
2024/03/12 13:12:07;;;;;;;12.10;8.45;;;10.70;99.90;;;;;;5058703;28;20433;-81
2024/03/12 13:14:33;;;;;;;11.65;8.15;;;10.80;99.90;;;;;;5067897;28;20393;-81
2024/03/12 13:16:59;;;;;;;12.60;8.63;;;10.70;99.90;;;;;;5079051;28;20386;-81
2024/03/12 13:19:26;;;;;;;10.13;8.00;;;10.80;99.90;;;;;;5076161;28;20485;-81
2024/03/12 13:21:55;;;;;;;11.02;8.98;;;10.80;99.90;;;;;;5078137;28;20488;-81
2024/03/12 13:24:21;;;;;;;11.20;9.20;;;10.90;99.90;;;;;;5091726;28;20384;-81
2024/03/12 13:26:47;;;;;;;10.85;8.95;;;10.80;99.90;;;;;;5076417;28;20392;-81
2024/03/12 13:29:15;;;;;;;13.10;9.18;;;10.60;99.90;;;;;;5059218;28;20402;-81
2024/03/12 13:31:42;;;;;;;11.43;8.63;;;10.60;99.90;;;;;;5062894;28;20399;-81
2024/03/12 13:34:07;;;;;;;11.82;8.50;;;10.60;99.90;;;;;;5070022;28;20384;-80
2024/03/12 13:36:33;;;;;;;12.50;9.87;;;10.50;99.90;;;;;;5098405;28;20397;-81
2024/03/12 13:38:59;;;;;;;11.90;9.63;;;10.50;99.90;;;;;;5077801;28;20382;-81
2024/03/12 13:41:24;;;;;;;12.85;9.30;;;10.50;99.90;;;;;;5077138;28;20390;-80